createdAt,value
2022-08-14T00:00:03.822Z,947.07
2022-08-14T00:02:31.563Z,947.00
2022-08-14T00:04:56.553Z,946.99
2022-08-14T00:07:22.944Z,946.97
2022-08-14T00:09:56.182Z,946.91
2022-08-14T00:12:24.278Z,946.89
2022-08-14T00:14:42.121Z,946.93
2022-08-14T00:17:08.439Z,946.82
2022-08-14T00:19:34.859Z,946.80
2022-08-14T00:22:01.328Z,946.76
2022-08-14T00:24:28.993Z,946.73
2022-08-14T00:26:54.841Z,946.73
2022-08-14T00:29:20.479Z,946.76
2022-08-14T00:31:46.961Z,946.74
2022-08-14T00:34:35.362Z,946.82
2022-08-14T00:36:48.632Z,946.88
2022-08-14T00:39:06.586Z,946.89
2022-08-14T00:41:33.459Z,946.85
2022-08-14T00:43:58.981Z,946.84
2022-08-14T00:46:33.035Z,946.83
2022-08-14T00:48:51.832Z,946.78
2022-08-14T00:51:18.324Z,946.81
2022-08-14T00:53:44.686Z,946.77
2022-08-14T00:56:11.050Z,946.78
2022-08-14T00:58:44.917Z,946.64
2022-08-14T01:01:03.988Z,946.66
2022-08-14T01:03:30.754Z,946.57
2022-08-14T01:05:56.809Z,946.48
2022-08-14T01:08:52.137Z,946.48
2022-08-14T01:10:49.571Z,946.54
2022-08-14T01:13:15.956Z,946.57
2022-08-14T01:15:55.147Z,946.55
2022-08-14T01:18:08.700Z,946.56
2022-08-14T01:20:35.089Z,946.50
2022-08-14T01:23:01.469Z,946.44
2022-08-14T01:25:27.853Z,946.41
2022-08-14T01:27:57.457Z,946.41
2022-08-14T01:30:20.887Z,946.50
2022-08-14T01:32:51.213Z,946.42
2022-08-14T01:35:19.131Z,946.38
2022-08-14T01:37:44.158Z,946.42
2022-08-14T01:40:06.294Z,946.43
2022-08-14T01:42:36.172Z,946.39
2022-08-14T01:44:59.090Z,946.39
2022-08-14T01:47:25.466Z,946.40
2022-08-14T01:50:01.234Z,946.41
2022-08-14T01:52:33.763Z,946.44
2022-08-14T01:54:44.760Z,946.44
2022-08-14T01:57:11.138Z,946.42
2022-08-14T01:59:38.590Z,946.38
2022-08-14T02:02:03.965Z,946.31
2022-08-14T02:04:40.880Z,946.34
2022-08-14T02:06:56.664Z,946.37
2022-08-14T02:09:23.152Z,946.40
2022-08-14T02:11:49.511Z,946.38
2022-08-14T02:14:15.918Z,946.33
2022-08-14T02:16:42.282Z,946.33
2022-08-14T02:19:08.649Z,946.22
2022-08-14T02:21:43.303Z,946.24
2022-08-14T02:24:01.402Z,946.31
2022-08-14T02:26:29.396Z,946.27
2022-08-14T02:28:57.547Z,946.20
2022-08-14T02:31:20.516Z,946.21
2022-08-14T02:33:46.973Z,946.21
2022-08-14T02:37:04.318Z,946.26
2022-08-14T02:38:39.767Z,946.16
2022-08-14T02:41:09.022Z,946.17
2022-08-14T02:43:37.106Z,946.20
2022-08-14T02:45:58.961Z,946.22
2022-08-14T02:49:02.971Z,946.23
2022-08-14T02:50:53.486Z,946.19
2022-08-14T02:53:18.231Z,946.17
2022-08-14T02:55:44.615Z,946.15
2022-08-14T02:58:11.097Z,946.16
2022-08-14T03:00:39.939Z,946.20
2022-08-14T03:03:08.018Z,946.20
2022-08-14T03:05:30.242Z,946.18
2022-08-14T03:07:56.726Z,946.19
2022-08-14T03:10:28.169Z,946.19
2022-08-14T03:12:49.526Z,946.19
2022-08-14T03:15:16.501Z,946.21
2022-08-14T03:17:57.807Z,946.23
2022-08-14T03:20:11.059Z,946.22
2022-08-14T03:22:35.140Z,946.20
2022-08-14T03:25:01.503Z,946.20
2022-08-14T03:27:35.528Z,946.21
2022-08-14T03:29:54.230Z,946.31
2022-08-14T03:32:20.616Z,946.29
2022-08-14T03:34:55.291Z,946.40
2022-08-14T03:37:28.353Z,946.45
2022-08-14T03:39:39.848Z,946.40
2022-08-14T03:42:06.174Z,946.43
2022-08-14T03:45:18.984Z,946.44
2022-08-14T03:46:58.939Z,946.43
2022-08-14T03:49:28.893Z,946.39
2022-08-14T03:51:51.713Z,946.43
2022-08-14T03:54:20.761Z,946.45
2022-08-14T03:56:44.468Z,946.46
2022-08-14T03:59:10.869Z,946.43
2022-08-14T04:01:39.123Z,946.43
2022-08-14T04:04:03.660Z,946.45
2022-08-14T04:06:31.563Z,946.47
2022-08-14T04:08:58.104Z,946.45
2022-08-14T04:11:22.814Z,946.43
2022-08-14T04:13:49.208Z,946.42
2022-08-14T04:16:15.623Z,946.44
2022-08-14T04:18:42.417Z,946.47
2022-08-14T04:21:08.441Z,946.44
2022-08-14T04:23:34.925Z,946.40
2022-08-14T04:26:01.356Z,946.36
2022-08-14T04:29:02.226Z,946.39
2022-08-14T04:30:54.120Z,946.39
2022-08-14T04:33:20.805Z,946.42
2022-08-14T04:35:56.896Z,946.44
2022-08-14T04:38:37.024Z,946.38
2022-08-14T04:40:40.465Z,946.35
2022-08-14T04:43:05.972Z,946.42
2022-08-14T04:45:32.415Z,946.40
2022-08-14T04:47:58.776Z,946.34
2022-08-14T04:50:33.882Z,946.43
2022-08-14T04:52:53.852Z,946.40
2022-08-14T04:55:18.033Z,946.40
2022-08-14T04:57:44.472Z,946.40
2022-08-14T05:00:16.235Z,946.39
2022-08-14T05:02:37.399Z,946.45
2022-08-14T05:05:03.603Z,946.46
2022-08-14T05:07:46.565Z,946.41
2022-08-14T05:09:56.350Z,946.41
2022-08-14T05:13:13.145Z,946.46
2022-08-14T05:14:54.780Z,946.48
2022-08-14T05:17:15.485Z,946.44
2022-08-14T05:19:44.916Z,946.48
2022-08-14T05:22:16.601Z,946.42
2022-08-14T05:24:34.722Z,946.45
2022-08-14T05:27:01.103Z,946.51
2022-08-14T05:29:27.593Z,946.52
2022-08-14T05:31:57.404Z,946.52
2022-08-14T05:34:20.318Z,946.53
2022-08-14T05:36:50.510Z,946.49
2022-08-14T05:39:13.068Z,946.50
2022-08-14T05:41:53.892Z,946.47
2022-08-14T05:44:05.799Z,946.47
2022-08-14T05:46:32.183Z,946.40
2022-08-14T05:48:58.640Z,946.49
2022-08-14T05:51:25.083Z,946.45
2022-08-14T05:54:00.143Z,946.48
2022-08-14T05:56:17.894Z,946.48
2022-08-14T05:58:44.275Z,946.49
2022-08-14T06:01:10.662Z,946.46
2022-08-14T06:03:37.001Z,946.41
2022-08-14T06:06:03.363Z,946.48
2022-08-14T06:08:36.314Z,946.45
2022-08-14T06:10:56.235Z,946.44
2022-08-14T06:13:22.663Z,946.47
2022-08-14T06:15:49.059Z,946.60
2022-08-14T06:18:17.583Z,946.57
2022-08-14T06:20:41.864Z,946.59
2022-08-14T06:23:08.298Z,946.61
2022-08-14T06:25:34.729Z,946.62
2022-08-14T06:28:02.139Z,946.61
2022-08-14T06:30:42.163Z,946.61
2022-08-14T06:32:54.125Z,946.66
2022-08-14T06:35:20.331Z,946.64
2022-08-14T06:37:46.903Z,946.70
2022-08-14T06:40:25.576Z,946.75
2022-08-14T06:42:39.497Z,946.74
2022-08-14T06:45:05.887Z,946.82
2022-08-14T06:47:32.284Z,946.73
2022-08-14T06:49:58.746Z,946.75
2022-08-14T06:52:25.112Z,946.72
2022-08-14T06:54:51.622Z,946.75
2022-08-14T06:57:17.983Z,946.69
2022-08-14T06:59:44.377Z,946.70
2022-08-14T07:02:13.604Z,946.65
2022-08-14T07:04:37.140Z,946.70
2022-08-14T07:07:04.463Z,946.73
2022-08-14T07:09:40.457Z,946.74
2022-08-14T07:11:56.469Z,946.71
2022-08-14T07:14:22.697Z,946.70
2022-08-14T07:16:49.061Z,946.69
2022-08-14T07:19:15.424Z,946.72
2022-08-14T07:21:41.808Z,946.70
2022-08-14T07:24:09.653Z,946.71
2022-08-14T07:26:34.635Z,946.78
2022-08-14T07:29:01.035Z,946.71
2022-08-14T07:31:27.400Z,946.74
2022-08-14T07:33:53.762Z,946.71
2022-08-14T07:36:26.584Z,946.74
2022-08-14T07:38:46.561Z,946.73
2022-08-14T07:41:14.826Z,946.73
2022-08-14T07:43:39.307Z,946.69
2022-08-14T07:46:05.676Z,946.74
2022-08-14T07:48:32.059Z,946.77
2022-08-14T07:50:58.417Z,946.86
2022-08-14T07:53:24.788Z,946.81
2022-08-14T07:56:09.171Z,946.87
2022-08-14T07:58:31.680Z,946.87
2022-08-14T08:00:43.980Z,946.81
2022-08-14T08:03:10.377Z,946.81
2022-08-14T08:05:36.721Z,946.85
2022-08-14T08:08:03.101Z,946.86
2022-08-14T08:10:46.335Z,946.91
2022-08-14T08:12:55.845Z,946.86
2022-08-14T08:15:22.231Z,946.84
2022-08-14T08:17:53.920Z,946.80
2022-08-14T08:20:15.014Z,946.82
2022-08-14T08:22:43.419Z,946.72
2022-08-14T08:25:11.389Z,946.71
2022-08-14T08:27:34.335Z,946.67
2022-08-14T08:30:00.769Z,946.64
2022-08-14T08:32:29.841Z,946.61
2022-08-14T08:34:53.535Z,946.65
2022-08-14T08:37:19.968Z,946.68
2022-08-14T08:40:02.333Z,946.64
2022-08-14T08:42:12.698Z,946.68
2022-08-14T08:44:39.108Z,946.60
2022-08-14T08:47:05.958Z,946.59
2022-08-14T08:49:36.365Z,946.67
2022-08-14T08:51:58.256Z,946.67
2022-08-14T08:54:26.563Z,946.63
2022-08-14T08:56:51.973Z,946.72
2022-08-14T08:59:17.486Z,946.64
2022-08-14T09:01:43.868Z,946.62
2022-08-14T09:04:14.757Z,946.57
2022-08-14T09:07:00.298Z,946.53
2022-08-14T09:09:03.166Z,946.52
2022-08-14T09:11:29.552Z,946.45
2022-08-14T09:13:55.953Z,946.39
2022-08-14T09:16:23.563Z,946.40
2022-08-14T09:18:48.821Z,946.43
2022-08-14T09:21:16.154Z,946.44
2022-08-14T09:24:28.504Z,946.42
2022-08-14T09:26:21.371Z,946.36
2022-08-14T09:28:34.536Z,946.28
2022-08-14T09:31:00.879Z,946.28
2022-08-14T09:33:27.274Z,946.40
2022-08-14T09:35:56.443Z,946.36
2022-08-14T09:38:26.132Z,946.46
2022-08-14T09:40:47.732Z,946.44
2022-08-14T09:43:12.854Z,946.50
2022-08-14T09:45:40.111Z,946.46
2022-08-14T09:48:05.598Z,946.51
2022-08-14T09:50:32.061Z,946.40
2022-08-14T09:52:58.686Z,946.49
2022-08-14T09:55:25.173Z,946.48
2022-08-14T09:57:51.167Z,946.47
2022-08-14T10:00:29.266Z,946.33
2022-08-14T10:02:46.211Z,946.37
2022-08-14T10:05:10.292Z,946.30
2022-08-14T10:07:36.671Z,946.28
2022-08-14T10:10:03.040Z,946.28
2022-08-14T10:12:29.552Z,946.29
2022-08-14T10:14:55.862Z,946.33
2022-08-14T10:17:22.213Z,946.31
2022-08-14T10:19:48.622Z,946.30
2022-08-14T10:23:11.746Z,946.28
2022-08-14T10:24:42.157Z,946.29
2022-08-14T10:27:07.843Z,946.24
2022-08-14T10:29:34.246Z,946.20
2022-08-14T10:32:00.608Z,946.19
2022-08-14T10:34:33.265Z,946.09
2022-08-14T10:37:02.598Z,946.09
2022-08-14T10:39:19.940Z,946.09
2022-08-14T10:41:48.546Z,946.02
2022-08-14T10:44:21.215Z,946.00
2022-08-14T10:47:39.094Z,946.00
2022-08-14T10:49:05.357Z,945.89
2022-08-14T10:51:34.029Z,945.83
2022-08-14T10:53:58.125Z,945.79
2022-08-14T10:56:33.859Z,945.78
2022-08-14T10:58:50.961Z,945.80
2022-08-14T11:01:17.319Z,945.77
2022-08-14T11:03:55.739Z,945.64
2022-08-14T11:06:10.106Z,945.67
2022-08-14T11:08:36.563Z,945.62
2022-08-14T11:11:02.945Z,945.57
2022-08-14T11:13:29.313Z,945.57
2022-08-14T11:15:55.716Z,945.55
2022-08-14T11:18:32.353Z,945.59
2022-08-14T11:20:48.571Z,945.55
2022-08-14T11:23:14.971Z,945.51
2022-08-14T11:25:44.396Z,945.52
2022-08-14T11:28:10.788Z,945.49
2022-08-14T11:30:51.714Z,945.57
2022-08-14T11:33:00.470Z,945.51
2022-08-14T11:35:26.823Z,945.53
2022-08-14T11:37:53.239Z,945.58
2022-08-14T11:40:24.369Z,945.46
2022-08-14T11:42:57.283Z,945.52
2022-08-14T11:45:18.746Z,945.59
2022-08-14T11:47:43.842Z,945.58
2022-08-14T11:50:05.198Z,945.59
2022-08-14T11:52:31.640Z,945.54
2022-08-14T11:54:58.021Z,945.53
2022-08-14T11:57:24.397Z,945.53
2022-08-14T11:59:50.759Z,945.46
2022-08-14T12:03:01.298Z,945.50
2022-08-14T12:04:43.499Z,945.47
2022-08-14T12:07:09.932Z,945.51
2022-08-14T12:09:36.362Z,945.49
2022-08-14T12:12:02.723Z,945.44
2022-08-14T12:14:34.719Z,945.46
2022-08-14T12:16:55.560Z,945.45
2022-08-14T12:19:21.992Z,945.38
2022-08-14T12:21:48.426Z,945.38
2022-08-14T12:24:35.792Z,945.34
2022-08-14T12:26:41.366Z,945.31
2022-08-14T12:29:07.605Z,945.27
2022-08-14T12:31:36.375Z,945.23
2022-08-14T12:34:00.395Z,945.15
2022-08-14T12:36:26.761Z,945.10
2022-08-14T12:38:54.199Z,945.12
2022-08-14T12:41:21.071Z,945.10
2022-08-14T12:43:45.914Z,945.15
2022-08-14T12:46:12.285Z,945.16
2022-08-14T12:48:38.630Z,945.16
2022-08-14T12:51:05.132Z,945.16
2022-08-14T12:53:31.470Z,945.23
2022-08-14T12:56:21.328Z,945.12
2022-08-14T12:58:35.360Z,945.11
2022-08-14T13:01:16.460Z,945.04
2022-08-14T13:03:17.108Z,944.99
2022-08-14T13:05:43.609Z,945.05
2022-08-14T13:08:10.661Z,945.01
2022-08-14T13:10:47.218Z,944.98
2022-08-14T13:13:13.537Z,944.91
2022-08-14T13:15:29.153Z,944.91
2022-08-14T13:17:55.533Z,944.86
2022-08-14T13:20:24.507Z,944.83
2022-08-14T13:22:48.351Z,944.89
2022-08-14T13:25:15.852Z,944.88
2022-08-14T13:27:41.039Z,944.85
2022-08-14T13:30:10.291Z,944.79
2022-08-14T13:32:33.959Z,944.80
2022-08-14T13:35:00.483Z,944.74
2022-08-14T13:37:26.826Z,944.73
2022-08-14T13:39:56.431Z,944.83
2022-08-14T13:42:19.570Z,944.80
2022-08-14T13:44:46.024Z,944.75
2022-08-14T13:47:12.382Z,944.75
2022-08-14T13:49:40.324Z,944.70
2022-08-14T13:52:48.749Z,944.76
2022-08-14T13:54:31.539Z,944.76
2022-08-14T13:56:57.984Z,944.81
2022-08-14T13:59:37.713Z,944.78
2022-08-14T14:01:51.660Z,944.73
2022-08-14T14:04:19.058Z,944.80
2022-08-14T14:06:43.613Z,944.82
2022-08-14T14:09:09.973Z,944.80
2022-08-14T14:11:36.331Z,944.83
2022-08-14T14:14:02.811Z,944.84
2022-08-14T14:16:31.093Z,944.86
2022-08-14T14:18:55.551Z,944.84
2022-08-14T14:21:22.088Z,944.88
2022-08-14T14:23:48.338Z,944.81
2022-08-14T14:26:16.189Z,944.80
2022-08-14T14:28:41.165Z,944.77
2022-08-14T14:31:07.527Z,944.72
2022-08-14T14:33:49.558Z,944.72
2022-08-14T14:36:00.407Z,944.76
2022-08-14T14:38:27.664Z,944.75
2022-08-14T14:41:00.945Z,944.76
2022-08-14T14:43:19.622Z,944.78
2022-08-14T14:45:45.998Z,944.80
2022-08-14T14:48:12.360Z,944.74
2022-08-14T14:50:38.738Z,944.67
2022-08-14T14:53:12.737Z,944.72
2022-08-14T14:55:43.032Z,944.62
2022-08-14T14:57:57.903Z,944.61
2022-08-14T15:00:24.316Z,944.61
2022-08-14T15:02:51.586Z,944.61
2022-08-14T15:05:17.121Z,944.65
2022-08-14T15:07:43.533Z,944.59
2022-08-14T15:10:27.658Z,944.62
2022-08-14T15:12:57.531Z,944.62
2022-08-14T15:15:08.866Z,944.54
2022-08-14T15:17:35.088Z,944.60
2022-08-14T15:19:56.959Z,944.44
2022-08-14T15:22:21.803Z,944.40
2022-08-14T15:24:48.241Z,944.41
2022-08-14T15:27:14.676Z,944.37
2022-08-14T15:29:43.083Z,944.44
2022-08-14T15:32:08.692Z,944.40
2022-08-14T15:34:45.414Z,944.43
2022-08-14T15:37:00.196Z,944.38
2022-08-14T15:39:29.346Z,944.42
2022-08-14T15:41:53.001Z,944.46
2022-08-14T15:44:25.690Z,944.49
2022-08-14T15:46:45.791Z,944.53
2022-08-14T15:49:12.162Z,944.46
2022-08-14T15:51:42.311Z,944.49
2022-08-14T15:54:05.022Z,944.54
2022-08-14T15:56:42.269Z,944.53
2022-08-14T15:58:57.895Z,944.53
2022-08-14T16:01:50.588Z,944.54
2022-08-14T16:03:50.685Z,944.54
2022-08-14T16:06:17.883Z,944.58
2022-08-14T16:08:43.466Z,944.48
2022-08-14T16:11:09.883Z,944.56
2022-08-14T16:13:41.675Z,944.54
2022-08-14T16:16:34.628Z,944.54
2022-08-14T16:18:29.056Z,944.55
2022-08-14T16:20:55.486Z,944.61
2022-08-14T16:23:21.865Z,944.59
2022-08-14T16:25:48.354Z,944.58
2022-08-14T16:28:27.587Z,944.62
2022-08-14T16:30:41.099Z,944.56
2022-08-14T16:33:07.466Z,944.59
2022-08-14T16:35:43.139Z,944.60
2022-08-14T16:38:00.215Z,944.71
2022-08-14T16:43:03.909Z,944.67
2022-08-14T16:45:19.347Z,944.59
2022-08-14T16:47:47.793Z,944.58
2022-08-14T16:50:12.105Z,944.59
2022-08-14T16:52:44.053Z,944.59
2022-08-14T16:55:04.933Z,944.62
2022-08-14T16:57:32.422Z,944.70
2022-08-14T16:59:59.093Z,944.75
2022-08-14T17:02:24.228Z,944.83
2022-08-14T17:04:50.617Z,944.90
2022-08-14T17:07:16.976Z,944.89
2022-08-14T17:09:43.870Z,944.86
2022-08-14T17:12:09.746Z,944.85
2022-08-14T17:14:36.132Z,944.90
2022-08-14T17:17:02.517Z,944.92
2022-08-14T17:19:28.877Z,944.92
2022-08-14T17:21:55.287Z,944.89
2022-08-14T17:24:57.978Z,944.88
2022-08-14T17:26:48.106Z,944.93
2022-08-14T17:29:14.465Z,944.95
2022-08-14T17:31:58.590Z,944.92
2022-08-14T17:34:07.249Z,944.87
2022-08-14T17:36:33.682Z,944.97
2022-08-14T17:39:00.269Z,944.92
2022-08-14T17:41:32.686Z,944.99
2022-08-14T17:43:55.330Z,944.96
2022-08-14T17:46:19.296Z,944.98
2022-08-14T17:49:15.957Z,945.05
2022-08-14T17:51:12.095Z,945.02
2022-08-14T17:53:38.493Z,945.03
2022-08-14T17:56:04.941Z,945.04
2022-08-14T17:58:42.126Z,945.15
2022-08-14T18:00:57.815Z,945.19
2022-08-14T18:03:46.749Z,945.23
2022-08-14T18:06:08.646Z,945.29
2022-08-14T18:08:34.119Z,945.26
2022-08-14T18:10:54.926Z,945.31
2022-08-14T18:13:10.518Z,945.27
2022-08-14T18:15:37.440Z,945.30
2022-08-14T18:18:02.305Z,945.33
2022-08-14T18:21:40.266Z,945.29
2022-08-14T18:22:55.089Z,945.27
2022-08-14T18:25:22.756Z,945.32
2022-08-14T18:27:48.041Z,945.39
2022-08-14T18:30:36.425Z,945.27
2022-08-14T18:32:47.075Z,945.33
2022-08-14T18:35:11.476Z,945.35
2022-08-14T18:37:33.483Z,945.33
2022-08-14T18:40:02.757Z,945.27
2022-08-14T18:42:30.296Z,945.33
2022-08-14T18:44:52.787Z,945.34
2022-08-14T18:47:19.039Z,945.35
2022-08-14T18:49:45.449Z,945.38
2022-08-14T18:52:11.828Z,945.39
2022-08-14T18:54:38.303Z,945.44
2022-08-14T18:57:05.363Z,945.48
2022-08-14T18:59:35.575Z,945.48
2022-08-14T19:01:57.559Z,945.46
2022-08-14T19:04:23.949Z,945.42
2022-08-14T19:06:56.524Z,945.40
2022-08-14T19:09:16.713Z,945.40
2022-08-14T19:11:43.084Z,945.44
2022-08-14T19:14:09.569Z,945.49
2022-08-14T19:16:36.153Z,945.52
2022-08-14T19:19:02.516Z,945.50
2022-08-14T19:21:29.702Z,945.58
2022-08-14T19:24:00.155Z,945.56
2022-08-14T19:26:36.774Z,945.55
2022-08-14T19:28:48.172Z,945.54
2022-08-14T19:31:14.527Z,945.55
2022-08-14T19:33:40.893Z,945.50
2022-08-14T19:36:07.290Z,945.55
2022-08-14T19:38:33.697Z,945.54
2022-08-14T19:41:01.533Z,945.55
2022-08-14T19:43:55.296Z,945.52
2022-08-14T19:45:52.879Z,945.57
2022-08-14T19:48:19.248Z,945.58
2022-08-14T19:50:45.613Z,945.58
2022-08-14T19:53:17.734Z,945.67
2022-08-14T19:55:38.420Z,945.71
2022-08-14T19:58:04.855Z,945.68
2022-08-14T20:00:31.276Z,945.76
2022-08-14T20:02:57.970Z,945.79
2022-08-14T20:05:24.051Z,945.78
2022-08-14T20:08:00.471Z,945.77
2022-08-14T20:11:11.278Z,945.77
2022-08-14T20:12:57.402Z,945.79
2022-08-14T20:15:09.679Z,945.83
2022-08-14T20:17:40.393Z,945.83
2022-08-14T20:20:02.416Z,945.85
2022-08-14T20:22:36.426Z,945.91
2022-08-14T20:24:55.176Z,945.88
2022-08-14T20:27:21.642Z,945.95
2022-08-14T20:29:48.074Z,945.84
2022-08-14T20:32:14.664Z,945.89
2022-08-14T20:34:40.827Z,945.84
2022-08-14T20:37:09.987Z,945.84
2022-08-14T20:39:34.621Z,945.90
2022-08-14T20:42:00.056Z,945.92
2022-08-14T20:44:28.630Z,945.90
2022-08-14T20:46:52.861Z,945.89
2022-08-14T20:49:19.425Z,945.91
2022-08-14T20:51:54.589Z,945.96
2022-08-14T20:54:12.097Z,945.93
2022-08-14T20:56:38.467Z,945.91
2022-08-14T20:59:04.885Z,945.96
2022-08-14T21:01:32.664Z,945.93
2022-08-14T21:03:58.304Z,945.91
2022-08-14T21:06:24.041Z,945.86
2022-08-14T21:08:50.491Z,945.90
2022-08-14T21:11:17.820Z,945.89
2022-08-14T21:14:25.083Z,945.94
2022-08-14T21:16:34.788Z,945.94
2022-08-14T21:18:44.920Z,945.98
2022-08-14T21:21:06.733Z,945.92
2022-08-14T21:23:32.496Z,945.88
2022-08-14T21:25:55.333Z,945.82
2022-08-14T21:28:29.968Z,945.83
2022-08-14T21:30:52.141Z,945.80
2022-08-14T21:33:14.461Z,945.81
2022-08-14T21:35:40.991Z,945.82
2022-08-14T21:38:07.326Z,945.85
2022-08-14T21:40:41.931Z,945.79
2022-08-14T21:43:00.175Z,945.76
2022-08-14T21:45:26.540Z,945.70
2022-08-14T21:47:52.903Z,945.77
2022-08-14T21:50:39.466Z,945.78
2022-08-14T21:52:51.013Z,945.75
2022-08-14T21:55:13.212Z,945.76
2022-08-14T21:57:53.514Z,945.66
2022-08-14T22:00:30.160Z,945.68
2022-08-14T22:02:32.783Z,945.69
2022-08-14T22:04:57.838Z,945.69
2022-08-14T22:07:29.303Z,945.75
2022-08-14T22:09:55.025Z,945.75
2022-08-14T22:12:58.827Z,945.79
2022-08-14T22:14:44.080Z,945.72
2022-08-14T22:17:13.084Z,945.63
2022-08-14T22:19:47.607Z,945.68
2022-08-14T22:22:02.630Z,945.67
2022-08-14T22:24:38.016Z,945.67
2022-08-14T22:26:55.623Z,945.68
2022-08-14T22:29:22.067Z,945.65
2022-08-14T22:31:48.427Z,945.61
2022-08-14T22:34:15.212Z,945.61
2022-08-14T22:36:42.076Z,945.57
2022-08-14T22:39:11.125Z,945.60
2022-08-14T22:41:42.646Z,945.57
2022-08-14T22:44:00.299Z,945.55
2022-08-14T22:46:27.099Z,945.61
2022-08-14T22:48:53.121Z,945.60
2022-08-14T22:51:19.508Z,945.63
2022-08-14T22:53:45.992Z,945.66
2022-08-14T22:56:20.306Z,945.71
2022-08-14T22:58:38.737Z,945.64
2022-08-14T23:01:10.140Z,945.63
2022-08-14T23:03:34.900Z,945.56
2022-08-14T23:05:59.299Z,945.55
2022-08-14T23:09:00.127Z,945.61
2022-08-14T23:10:50.810Z,945.58
2022-08-14T23:13:17.192Z,945.60
2022-08-14T23:15:43.681Z,945.64
2022-08-14T23:18:13.278Z,945.67
2022-08-14T23:20:36.488Z,945.71
2022-08-14T23:23:02.781Z,945.77
2022-08-14T23:25:57.313Z,945.74
2022-08-14T23:28:03.207Z,945.71
2022-08-14T23:30:34.139Z,945.73
2022-08-14T23:32:48.456Z,945.63
2022-08-14T23:35:14.831Z,945.60
2022-08-14T23:37:41.197Z,945.69
2022-08-14T23:40:26.520Z,945.70
2022-08-14T23:42:40.065Z,945.67
2022-08-14T23:45:00.285Z,945.70
2022-08-14T23:47:27.841Z,945.69
2022-08-14T23:50:00.341Z,945.75
2022-08-14T23:52:50.867Z,945.71
2022-08-14T23:54:49.443Z,945.63
2022-08-14T23:57:12.317Z,945.61
2022-08-14T23:59:45.177Z,945.60
